Terminal Aerodrome Forecast
Issued by NWS Sterling, VA

Current Version | Previous Version | Graphics & Text | Print | Product List | Glossary Off
Versions: 1 2 3 4 5 6 7 8 9 10 11 12 13 14 15 16 17 18 19 20 21 22 23 24 25 26 27

000
FTUS41 KLWX 202341
TAFIAD
TAF
KIAD 202341Z 2100/2206 14006KT P6SM OVC007
     FM210200 VRB03KT 4SM -DZ BR OVC006
     FM210400 VRB03KT 3SM -DZ BR OVC006
     FM210700 00000KT 2SM -DZ BR OVC003
     FM211400 VRB03KT 4SM -DZ BR OVC008
     FM211700 17005KT P6SM SCT008 OVC012
     FM220000 15005KT P6SM SCT004 OVC010=

USA.gov is the U.S. government's official web portal to all federal, state and local government web resources and services.